createdAt,value
2022-09-22T00:00:24.792Z,541
2022-09-22T00:01:27.862Z,540.8
2022-09-22T00:02:30.768Z,540.6
2022-09-22T00:03:32.721Z,540.6
2022-09-22T00:04:35.209Z,540.2
2022-09-22T00:05:37.700Z,540.6
2022-09-22T00:06:39.823Z,540.7
2022-09-22T00:07:42.307Z,540.3
2022-09-22T00:08:44.819Z,540.6
2022-09-22T00:09:47.295Z,540
2022-09-22T00:10:49.768Z,540
2022-09-22T00:11:51.695Z,540.5
2022-09-22T00:12:53.878Z,540.1
2022-09-22T00:13:56.486Z,540
2022-09-22T00:14:58.672Z,540.4
2022-09-22T00:16:01.310Z,540.3
2022-09-22T00:17:03.548Z,540.6
2022-09-22T00:18:06.022Z,540.6
2022-09-22T00:19:08.743Z,540.6
2022-09-22T00:20:11.248Z,541
2022-09-22T00:21:13.421Z,540.7
2022-09-22T00:22:15.898Z,540.7
2022-09-22T00:23:18.372Z,540.3
2022-09-22T00:24:20.565Z,540.5
2022-09-22T00:25:22.752Z,540.4
2022-09-22T00:26:25.233Z,540.7
2022-09-22T00:27:27.719Z,540.8
2022-09-22T00:28:30.194Z,540.8
2022-09-22T00:29:32.718Z,540.7
2022-09-22T00:30:34.904Z,540.7
2022-09-22T00:31:37.880Z,540.9
2022-09-22T00:32:40.380Z,540.6
2022-09-22T00:33:42.286Z,540.8
2022-09-22T00:34:44.184Z,540.9
2022-09-22T00:35:46.656Z,541
2022-09-22T00:36:49.124Z,541.1
2022-09-22T00:37:51.588Z,541.2
2022-09-22T00:38:54.087Z,541.2
2022-09-22T00:39:56.299Z,541.3
2022-09-22T00:40:58.767Z,541.7
2022-09-22T00:42:00.682Z,542
2022-09-22T00:43:02.881Z,542.1
2022-09-22T00:44:05.084Z,542
2022-09-22T00:45:07.602Z,541.9
2022-09-22T00:46:10.370Z,542.2
2022-09-22T00:47:12.861Z,542.5
2022-09-22T00:48:15.363Z,542.5
2022-09-22T00:49:17.830Z,542.9
2022-09-22T00:50:19.763Z,543.2
2022-09-22T00:51:22.241Z,543.2
2022-09-22T00:52:24.421Z,543.3
2022-09-22T00:53:26.614Z,543.8
2022-09-22T00:54:28.792Z,543.9
2022-09-22T00:55:30.982Z,543.9
2022-09-22T00:56:33.479Z,544.2
2022-09-22T00:57:35.965Z,544
2022-09-22T00:58:38.429Z,544.3
2022-09-22T00:59:40.901Z,544.2
2022-09-22T01:00:43.852Z,544.2
2022-09-22T01:01:46.572Z,544.3
2022-09-22T01:02:49.082Z,544.3
2022-09-22T01:03:51.575Z,544.4
2022-09-22T01:04:53.787Z,544.7
2022-09-22T01:05:55.984Z,544.9
2022-09-22T01:06:57.635Z,545
2022-09-22T01:08:00.154Z,545.1
2022-09-22T01:09:02.163Z,544.9
2022-09-22T01:10:04.335Z,545
2022-09-22T01:11:06.832Z,545.3
2022-09-22T01:12:09.312Z,545.3
2022-09-22T01:13:11.528Z,545.4
2022-09-22T01:14:13.993Z,545.5
2022-09-22T01:15:16.203Z,546.2
2022-09-22T01:16:18.883Z,545.8
2022-09-22T01:17:20.827Z,545.9
2022-09-22T01:18:23.296Z,545.8
2022-09-22T01:19:25.801Z,546.1
2022-09-22T01:20:28.291Z,546.1
2022-09-22T01:21:30.772Z,546.3
2022-09-22T01:22:33.254Z,546.1
2022-09-22T01:23:35.716Z,546.3
2022-09-22T01:24:38.187Z,546.7
2022-09-22T01:25:40.382Z,546.4
2022-09-22T01:26:42.873Z,546.9
2022-09-22T01:27:45.335Z,546.7
2022-09-22T01:28:47.803Z,547
2022-09-22T01:29:50.276Z,547
2022-09-22T01:30:52.684Z,547.3
2022-09-22T01:31:54.965Z,546.9
2022-09-22T01:32:57.451Z,546.8
2022-09-22T01:33:59.929Z,546.6
2022-09-22T01:35:02.413Z,546.8
2022-09-22T01:36:04.601Z,546.8
2022-09-22T01:37:06.800Z,546.9
2022-09-22T01:38:09.274Z,546.9
2022-09-22T01:39:11.743Z,547
2022-09-22T01:40:14.575Z,547
2022-09-22T01:41:17.096Z,547.3
2022-09-22T01:42:19.048Z,547.5
2022-09-22T01:43:21.522Z,547.1
2022-09-22T01:44:23.723Z,547.3
2022-09-22T01:45:25.929Z,547.5
2022-09-22T01:46:28.520Z,547.5
2022-09-22T01:47:30.810Z,547.7
2022-09-22T01:48:32.727Z,547.9
2022-09-22T01:49:34.370Z,547.9
2022-09-22T01:50:36.582Z,547.6
2022-09-22T01:51:39.067Z,547.4
2022-09-22T01:52:41.586Z,547.3
2022-09-22T01:53:43.784Z,547.5
2022-09-22T01:54:45.977Z,547.2
2022-09-22T01:55:48.168Z,547.2
2022-09-22T01:56:50.637Z,547.3
2022-09-22T01:57:53.132Z,546.9
2022-09-22T01:58:55.332Z,546.9
2022-09-22T01:59:57.803Z,547.1
2022-09-22T02:01:00.293Z,546.8
2022-09-22T02:02:03.581Z,547
2022-09-22T02:03:06.184Z,547.1
2022-09-22T02:04:08.374Z,546.9
2022-09-22T02:05:10.844Z,547.1
2022-09-22T02:06:13.346Z,547
2022-09-22T02:07:15.819Z,546.6
2022-09-22T02:08:18.294Z,547
2022-09-22T02:09:20.777Z,546.5
2022-09-22T02:10:22.979Z,546.7
2022-09-22T02:11:25.459Z,546.8
2022-09-22T02:12:27.934Z,546.9
2022-09-22T02:13:30.431Z,546.9
2022-09-22T02:14:32.921Z,547
2022-09-22T02:15:35.628Z,546.8
2022-09-22T02:16:37.861Z,546.7
2022-09-22T02:17:40.054Z,546.9
2022-09-22T02:18:42.291Z,547.1
2022-09-22T02:19:44.759Z,546.9
2022-09-22T02:20:46.964Z,547.1
2022-09-22T02:21:49.500Z,546.7
2022-09-22T02:22:51.979Z,547
2022-09-22T02:23:54.456Z,546.8
2022-09-22T02:24:56.362Z,547.2
2022-09-22T02:25:58.569Z,546.7
2022-09-22T02:27:00.504Z,547
2022-09-22T02:28:02.991Z,546.9
2022-09-22T02:29:04.949Z,547
2022-09-22T02:30:07.144Z,546.6
2022-09-22T02:32:14.759Z,547.3
2022-09-22T02:33:17.231Z,546.9
2022-09-22T02:34:19.771Z,547.2
2022-09-22T02:35:22.238Z,547.3
2022-09-22T02:36:24.449Z,547.3
2022-09-22T02:37:26.936Z,547.4
2022-09-22T02:38:29.420Z,547
2022-09-22T02:39:31.895Z,546.7
2022-09-22T02:40:34.784Z,546.7
2022-09-22T02:41:37.280Z,547.1
2022-09-22T02:42:39.753Z,546.7
2022-09-22T02:43:42.222Z,546.6
2022-09-22T02:44:44.445Z,546.8
2022-09-22T02:45:46.919Z,546.5
2022-09-22T02:46:49.405Z,546.7
2022-09-22T02:47:51.878Z,546.4
2022-09-22T02:48:54.380Z,546.5
2022-09-22T02:49:56.666Z,545.9
2022-09-22T02:50:58.313Z,546.2
2022-09-22T02:52:00.785Z,546.2
2022-09-22T02:53:03.291Z,546.4
2022-09-22T02:54:06.233Z,546.2
2022-09-22T02:55:08.547Z,546.1
2022-09-22T02:56:11.027Z,546.2
2022-09-22T02:57:13.510Z,546.1
2022-09-22T02:58:15.980Z,545.9
2022-09-22T02:59:18.454Z,545.9
2022-09-22T03:00:20.667Z,545.6
2022-09-22T03:01:23.598Z,546.1
2022-09-22T03:02:26.169Z,546.1
2022-09-22T03:03:28.368Z,546.2
2022-09-22T03:04:31.208Z,545.9
2022-09-22T03:05:33.800Z,545.9
2022-09-22T03:06:36.269Z,545.9
2022-09-22T03:07:38.472Z,545.8
2022-09-22T03:08:40.963Z,545.5
2022-09-22T03:09:43.447Z,545.7
2022-09-22T03:10:45.625Z,545.2
2022-09-22T03:11:48.099Z,545.4
2022-09-22T03:13:55.565Z,546.6
2022-09-22T03:14:58.037Z,546.3
2022-09-22T03:16:00.955Z,546.1
2022-09-22T03:17:02.882Z,546.4
2022-09-22T03:18:04.804Z,546.6
2022-09-22T03:19:07.276Z,546.2
2022-09-22T03:20:09.487Z,546.3
2022-09-22T03:21:12.018Z,546.4
2022-09-22T03:22:14.483Z,546.5
2022-09-22T03:23:16.961Z,546.5
2022-09-22T03:24:19.174Z,546.4
2022-09-22T03:25:21.349Z,546.8
2022-09-22T03:26:23.823Z,546.7
2022-09-22T03:27:26.297Z,546.8
2022-09-22T03:28:28.233Z,546.7
2022-09-22T03:29:30.707Z,546.9
2022-09-22T03:30:33.370Z,547.1
2022-09-22T03:31:35.886Z,547.3
2022-09-22T03:32:37.794Z,547.2
2022-09-22T03:33:40.275Z,547.2
2022-09-22T03:34:42.754Z,547.2
2022-09-22T03:35:45.645Z,547.3
2022-09-22T03:36:48.237Z,546.7
2022-09-22T03:37:49.925Z,546.7
2022-09-22T03:38:52.136Z,547
2022-09-22T03:39:54.682Z,547.2
2022-09-22T03:40:56.895Z,546.9
2022-09-22T03:41:59.108Z,547.1
2022-09-22T03:43:01.591Z,546.8
2022-09-22T03:44:03.558Z,546.8
2022-09-22T03:45:20.445Z,546.3
2022-09-22T03:46:23.172Z,546.6
2022-09-22T03:47:25.697Z,546.9
2022-09-22T03:48:28.189Z,547.1
2022-09-22T03:49:30.677Z,547.1
2022-09-22T03:50:33.175Z,546.9
2022-09-22T03:51:35.660Z,547.3
2022-09-22T03:52:37.903Z,547.3
2022-09-22T03:53:40.379Z,547.4
2022-09-22T03:54:42.854Z,547.1
2022-09-22T03:55:45.066Z,547.6
2022-09-22T03:56:47.545Z,547.7
2022-09-22T03:57:50.021Z,547.6
2022-09-22T03:58:52.486Z,547.6
2022-09-22T03:59:55.151Z,547.7
2022-09-22T04:00:58.016Z,547.5
2022-09-22T04:02:01.159Z,547.4
2022-09-22T04:03:03.758Z,547.1
2022-09-22T04:04:05.952Z,547.6
2022-09-22T04:05:08.150Z,547.4
2022-09-22T04:06:10.624Z,547.7
2022-09-22T04:07:12.827Z,547.2
2022-09-22T04:08:15.368Z,547.4
2022-09-22T04:09:17.826Z,547.6
2022-09-22T04:10:20.307Z,548
2022-09-22T04:11:22.791Z,547.7
2022-09-22T04:12:25.294Z,548.1
2022-09-22T04:13:27.768Z,547.6
2022-09-22T04:14:29.679Z,548.1
2022-09-22T04:15:32.149Z,548
2022-09-22T04:16:34.968Z,547.7
2022-09-22T04:17:37.442Z,547.4
2022-09-22T04:18:39.944Z,547.6
2022-09-22T04:19:42.427Z,547.6
2022-09-22T04:20:44.640Z,548.2
2022-09-22T04:21:47.352Z,547.7
2022-09-22T04:22:49.548Z,547.8
2022-09-22T04:23:52.071Z,548.1
2022-09-22T04:24:54.536Z,548.3
2022-09-22T04:25:57.010Z,548.4
2022-09-22T04:29:09.735Z,547.9
2022-09-22T04:30:12.203Z,548.7
2022-09-22T04:31:15.055Z,548.2
2022-09-22T04:32:17.275Z,547.9
2022-09-22T04:33:19.744Z,548
2022-09-22T04:34:22.229Z,547.8
2022-09-22T04:35:24.437Z,547.6
2022-09-22T04:36:26.902Z,547.3
2022-09-22T04:37:29.101Z,547.4
2022-09-22T04:38:31.575Z,547.5
2022-09-22T04:39:34.111Z,547.3
2022-09-22T04:40:36.982Z,547
2022-09-22T04:41:39.195Z,547.2
2022-09-22T04:42:41.689Z,547
2022-09-22T04:43:44.168Z,546.7
2022-09-22T04:44:46.365Z,546.8
2022-09-22T04:45:49.111Z,546.8
2022-09-22T04:46:51.648Z,546.9
2022-09-22T04:47:53.852Z,546.4
2022-09-22T04:48:56.048Z,546.1
2022-09-22T04:49:58.270Z,545.8
2022-09-22T04:51:00.470Z,545.8
2022-09-22T04:52:02.944Z,545.5
2022-09-22T04:53:05.125Z,545.8
2022-09-22T04:54:07.610Z,545.9
2022-09-22T04:55:10.162Z,545.5
2022-09-22T04:56:12.625Z,545.9
2022-09-22T04:58:20.111Z,545.5
2022-09-22T04:59:22.308Z,545.4
2022-09-22T05:00:24.506Z,545.3
2022-09-22T05:01:27.288Z,545.2
2022-09-22T05:02:29.518Z,544.9
2022-09-22T05:03:32.344Z,544.9
2022-09-22T05:04:34.579Z,545
2022-09-22T05:05:37.064Z,544.9
2022-09-22T05:06:39.260Z,544.8
2022-09-22T05:07:41.732Z,544.9
2022-09-22T05:08:44.212Z,545
2022-09-22T05:09:46.692Z,544.9
2022-09-22T05:10:49.227Z,544.4
2022-09-22T05:11:51.421Z,544.5
2022-09-22T05:12:53.901Z,544.6
2022-09-22T05:13:56.401Z,544.3
2022-09-22T05:14:58.876Z,544.2
2022-09-22T05:16:01.642Z,544.3
2022-09-22T05:17:03.855Z,544.5
2022-09-22T05:18:06.055Z,544.8
2022-09-22T05:19:08.257Z,544.7
2022-09-22T05:20:10.743Z,544.5
2022-09-22T05:21:12.684Z,544.6
2022-09-22T05:22:14.877Z,544.5
2022-09-22T05:23:17.070Z,544.7
2022-09-22T05:24:19.565Z,544.5
2022-09-22T05:25:22.044Z,544.4
2022-09-22T05:26:24.582Z,544.5
2022-09-22T05:27:26.788Z,544.4
2022-09-22T05:28:29.262Z,544.2
2022-09-22T05:29:31.761Z,544.4
2022-09-22T05:30:33.410Z,544.6
2022-09-22T05:31:36.250Z,544.3
2022-09-22T05:32:38.229Z,544.6
2022-09-22T05:33:40.437Z,544.3
2022-09-22T05:34:42.906Z,544.2
2022-09-22T05:35:45.108Z,544.2
2022-09-22T05:36:47.324Z,544.1
2022-09-22T05:37:49.803Z,543.6
2022-09-22T05:38:51.997Z,543.7
2022-09-22T05:39:54.474Z,543.9
2022-09-22T05:40:56.396Z,544
2022-09-22T05:41:58.946Z,543.9
2022-09-22T05:43:01.429Z,543.5
2022-09-22T05:44:03.339Z,543.8
2022-09-22T05:45:05.829Z,543.6
2022-09-22T05:46:08.463Z,543.4
2022-09-22T05:47:10.975Z,543.3
2022-09-22T05:48:13.161Z,543.6
2022-09-22T05:49:15.634Z,543.3
2022-09-22T05:50:17.831Z,543.2
2022-09-22T05:51:19.736Z,543.1
2022-09-22T05:52:21.926Z,543.2
2022-09-22T05:53:24.109Z,543.4
2022-09-22T05:54:26.292Z,543.5
2022-09-22T05:55:28.489Z,543.6
2022-09-22T05:56:30.967Z,543.4
2022-09-22T05:57:33.505Z,543.1
2022-09-22T05:58:35.707Z,543.5
2022-09-22T05:59:37.928Z,543.4
2022-09-22T06:00:40.523Z,543.5
2022-09-22T06:01:42.824Z,543.1
2022-09-22T06:02:45.672Z,543.5
2022-09-22T06:03:47.908Z,543.7
2022-09-22T06:04:51.774Z,543.5
2022-09-22T06:05:54.256Z,543.5
2022-09-22T06:06:56.460Z,543.5
2022-09-22T06:07:58.680Z,543.7
2022-09-22T06:09:01.385Z,543.2
2022-09-22T06:10:03.579Z,543.5
2022-09-22T06:11:06.077Z,543.4
2022-09-22T06:12:08.567Z,543.7
2022-09-22T06:13:11.155Z,543.1
2022-09-22T06:14:13.660Z,543.5
2022-09-22T06:15:15.861Z,543.6
2022-09-22T06:16:18.726Z,543.7
2022-09-22T06:17:21.237Z,543.6
2022-09-22T06:19:28.709Z,543.3
2022-09-22T06:20:30.903Z,543.6
2022-09-22T06:21:33.099Z,543.4
2022-09-22T06:22:35.562Z,543.5
2022-09-22T06:24:43.061Z,543.3
2022-09-22T06:25:45.535Z,543.3
2022-09-22T06:26:48.005Z,543.2
2022-09-22T06:27:50.199Z,543.3
2022-09-22T06:28:52.736Z,543.1
2022-09-22T06:29:55.246Z,543.3
2022-09-22T06:30:57.851Z,543.4
2022-09-22T06:32:00.692Z,543
2022-09-22T06:33:03.183Z,543.3
2022-09-22T06:35:10.673Z,542.9
2022-09-22T06:36:13.146Z,543.1
2022-09-22T06:37:15.626Z,543.3
2022-09-22T06:38:17.807Z,543.5
2022-09-22T06:39:20.059Z,543.2
2022-09-22T06:40:22.614Z,543.5
2022-09-22T06:41:25.098Z,543.7
2022-09-22T06:42:27.581Z,543.4
2022-09-22T06:43:29.777Z,543.6
2022-09-22T06:44:32.326Z,543.7
2022-09-22T06:45:35.589Z,543.6
2022-09-22T06:46:38.132Z,543.6
2022-09-22T06:47:40.339Z,543.9
2022-09-22T06:48:42.818Z,543.9
2022-09-22T06:49:45.026Z,543.9
2022-09-22T06:50:47.242Z,544.1
2022-09-22T06:51:49.446Z,544.1
2022-09-22T06:52:51.952Z,544.3
2022-09-22T06:53:54.428Z,544.4
2022-09-22T06:54:56.916Z,544.8
2022-09-22T06:55:59.142Z,544.3
2022-09-22T06:57:01.629Z,544.6
2022-09-22T06:58:03.791Z,544.4
2022-09-22T07:00:11.335Z,544.6
2022-09-22T07:01:14.176Z,544.5
2022-09-22T07:02:17.428Z,545
2022-09-22T07:03:19.418Z,544.6
2022-09-22T07:04:21.900Z,545.1
2022-09-22T07:05:24.101Z,545.2
2022-09-22T07:06:26.046Z,544.7
2022-09-22T07:07:28.517Z,545.1
2022-09-22T07:08:30.450Z,544.8
2022-09-22T07:09:32.634Z,545.1
2022-09-22T07:10:34.815Z,544.9
2022-09-22T07:12:42.315Z,545.3
2022-09-22T07:13:44.785Z,545.1
2022-09-22T07:14:47.267Z,545.7
2022-09-22T07:15:49.905Z,545.7
2022-09-22T07:16:52.404Z,545.6
2022-09-22T07:17:54.892Z,545.8
2022-09-22T07:18:58.022Z,545.9
2022-09-22T07:20:00.206Z,545.8
2022-09-22T07:21:02.694Z,545.9
2022-09-22T07:22:04.872Z,545.5
2022-09-22T07:23:07.347Z,545.5
2022-09-22T07:24:09.954Z,545.8
2022-09-22T07:25:12.435Z,545.7
2022-09-22T07:26:14.659Z,545.6
2022-09-22T07:27:17.138Z,545.8
2022-09-22T07:28:19.645Z,545.7
2022-09-22T07:29:21.848Z,545.7
2022-09-22T07:30:24.310Z,545.7
2022-09-22T07:32:31.888Z,545.6
2022-09-22T07:33:34.113Z,545.7
2022-09-22T07:34:36.615Z,545.4
2022-09-22T07:35:38.806Z,545.4
2022-09-22T07:36:41.015Z,545.8
2022-09-22T07:37:43.208Z,545.5
2022-09-22T07:38:45.693Z,545.6
2022-09-22T07:39:47.895Z,545.6
2022-09-22T07:40:50.819Z,545.7
2022-09-22T07:41:53.080Z,545.6
2022-09-22T07:42:55.553Z,545.4
2022-09-22T07:43:57.746Z,545.3
2022-09-22T07:45:00.236Z,545.7
2022-09-22T07:46:02.722Z,545.7
2022-09-22T07:47:05.443Z,545.9
2022-09-22T07:48:07.718Z,545.8
2022-09-22T07:49:10.187Z,546
2022-09-22T07:50:12.385Z,545.5
2022-09-22T07:52:19.581Z,545.5
2022-09-22T07:53:21.770Z,545.5
2022-09-22T07:54:23.696Z,545.7
2022-09-22T07:55:26.341Z,546
2022-09-22T07:56:28.531Z,545.5
2022-09-22T07:57:30.996Z,545.6
2022-09-22T07:58:33.472Z,545.7
2022-09-22T07:59:35.686Z,545.7
2022-09-22T08:00:38.477Z,545.5
2022-09-22T08:01:40.832Z,545.3
2022-09-22T08:02:42.825Z,545.4
2022-09-22T08:03:45.375Z,545.7
2022-09-22T08:04:47.581Z,545.4
2022-09-22T08:05:50.091Z,545.9
2022-09-22T08:06:52.289Z,545.7
2022-09-22T08:07:54.510Z,545.7
2022-09-22T08:08:56.714Z,545.5
2022-09-22T08:09:58.907Z,545.7
2022-09-22T08:11:01.399Z,545.7
2022-09-22T08:12:03.605Z,545.9
2022-09-22T08:13:05.833Z,545.9
2022-09-22T08:14:08.451Z,545.8
2022-09-22T08:15:11.002Z,545.7
2022-09-22T08:16:13.898Z,545.9
2022-09-22T08:17:16.418Z,546
2022-09-22T08:18:18.627Z,545.8
2022-09-22T08:19:21.170Z,545.3
2022-09-22T08:20:23.643Z,545.3
2022-09-22T08:21:25.888Z,545.7
2022-09-22T08:22:28.119Z,545.6
2022-09-22T08:23:30.322Z,545.6
2022-09-22T08:24:32.254Z,545.4
2022-09-22T08:25:34.748Z,545.6
2022-09-22T08:26:36.976Z,545.3
2022-09-22T08:27:39.451Z,545.5
2022-09-22T08:28:41.960Z,545.7
2022-09-22T08:29:44.439Z,545.5
2022-09-22T08:30:46.683Z,545.9
2022-09-22T08:31:49.822Z,545.4
2022-09-22T08:32:52.375Z,545.6
2022-09-22T08:33:54.960Z,545.5
2022-09-22T08:34:57.618Z,545.6
2022-09-22T08:36:00.096Z,545.2
2022-09-22T08:37:02.611Z,545.8
2022-09-22T08:39:12.437Z,545.8
2022-09-22T08:40:15.478Z,546
2022-09-22T08:41:17.711Z,545.8
2022-09-22T08:42:19.911Z,546
2022-09-22T08:43:22.387Z,546.3
2022-09-22T08:44:24.029Z,546.7
2022-09-22T08:46:31.923Z,546.3
2022-09-22T08:47:34.153Z,546.4
2022-09-22T08:48:36.358Z,546.7
2022-09-22T08:49:38.826Z,546.7
2022-09-22T08:50:41.366Z,546.4
2022-09-22T08:51:43.832Z,546.5
2022-09-22T08:52:46.315Z,546.6
2022-09-22T08:53:48.220Z,546.5
2022-09-22T08:54:50.399Z,546.5
2022-09-22T08:55:52.867Z,546.7
2022-09-22T08:56:55.349Z,547
2022-09-22T08:57:57.139Z,546.7
2022-09-22T08:58:59.344Z,546.7
2022-09-22T09:00:01.420Z,546.8
2022-09-22T09:01:03.655Z,546.5
2022-09-22T09:02:06.628Z,546.7
2022-09-22T09:03:09.092Z,546.9
2022-09-22T09:04:11.638Z,546.5
2022-09-22T09:05:14.124Z,547
2022-09-22T09:06:16.678Z,546.4
2022-09-22T09:07:19.165Z,546.7
2022-09-22T09:08:21.385Z,546.7
2022-09-22T09:09:23.863Z,546.5
2022-09-22T09:10:26.375Z,546.7
2022-09-22T09:11:28.866Z,546.3
2022-09-22T09:12:31.069Z,546.4
2022-09-22T09:13:33.252Z,546.1
2022-09-22T09:14:35.181Z,546.3
2022-09-22T09:15:38.076Z,546
2022-09-22T09:16:40.671Z,546.7
2022-09-22T09:17:43.170Z,546.5
2022-09-22T09:18:45.370Z,546.6
2022-09-22T09:19:47.864Z,546.6
2022-09-22T09:20:50.339Z,546.8
2022-09-22T09:21:52.637Z,546.9
2022-09-22T09:22:55.106Z,546.9
2022-09-22T09:26:07.323Z,547.4
2022-09-22T09:27:09.793Z,546.8
2022-09-22T09:28:12.278Z,546.9
2022-09-22T09:29:14.748Z,547
2022-09-22T09:30:17.763Z,547.3
2022-09-22T09:31:20.682Z,547.2
2022-09-22T09:32:23.164Z,547.4
2022-09-22T09:33:25.108Z,547
2022-09-22T09:34:27.585Z,547.7
2022-09-22T09:35:29.779Z,547.8
2022-09-22T09:36:32.264Z,547.5
2022-09-22T09:37:34.816Z,547.5
2022-09-22T09:38:37.012Z,547.5
2022-09-22T09:39:39.234Z,547.6
2022-09-22T09:40:42.071Z,547.8
2022-09-22T09:41:44.287Z,548.1
2022-09-22T09:42:46.771Z,547.8
2022-09-22T09:44:56.986Z,547.4
2022-09-22T09:45:59.471Z,547.6
2022-09-22T09:47:02.039Z,547.9
2022-09-22T09:48:04.526Z,547.9
2022-09-22T09:49:07.070Z,547.7
2022-09-22T09:50:09.537Z,547.8
2022-09-22T09:51:12.019Z,547.5
2022-09-22T09:52:14.207Z,547.6
2022-09-22T09:53:16.816Z,547.6
2022-09-22T09:54:19.580Z,547.7
2022-09-22T09:56:27.302Z,548
2022-09-22T09:57:29.972Z,548
2022-09-22T09:58:32.462Z,548.2
2022-09-22T09:59:34.932Z,548.2
2022-09-22T10:00:37.416Z,548.3
2022-09-22T10:01:39.847Z,548.7
2022-09-22T10:02:41.791Z,548.6
2022-09-22T10:03:44.474Z,548.6
2022-09-22T10:04:46.737Z,548.5
2022-09-22T10:05:48.960Z,548.4
2022-09-22T10:06:51.154Z,548.6
2022-09-22T10:07:53.629Z,548.7
2022-09-22T10:08:56.221Z,548.6
2022-09-22T10:09:58.712Z,548.8
2022-09-22T10:11:00.924Z,548.7
2022-09-22T10:12:03.416Z,548.6
2022-09-22T10:13:05.622Z,549
2022-09-22T10:14:07.869Z,548.8
2022-09-22T10:15:10.367Z,548.7
2022-09-22T10:16:13.010Z,549
2022-09-22T10:17:15.272Z,549.3
2022-09-22T10:18:17.753Z,549.4
2022-09-22T10:19:19.954Z,549.6
2022-09-22T10:20:22.473Z,550
2022-09-22T10:21:24.964Z,550.4
2022-09-22T10:22:27.187Z,550.3
2022-09-22T10:23:29.602Z,550.1
2022-09-22T10:24:31.934Z,549.8
2022-09-22T10:25:33.580Z,550.1
2022-09-22T10:26:36.080Z,550.2
2022-09-22T10:27:38.282Z,550.2
2022-09-22T10:28:40.787Z,550.7
2022-09-22T10:29:42.761Z,550.6
2022-09-22T10:30:45.196Z,550.3
2022-09-22T10:31:47.475Z,550.4
2022-09-22T10:32:49.974Z,550.5
2022-09-22T10:33:52.455Z,550.8
2022-09-22T10:34:54.695Z,550.9
2022-09-22T10:35:57.220Z,551.3
2022-09-22T10:36:59.151Z,550.9
2022-09-22T10:38:00.814Z,550.3
2022-09-22T10:39:03.853Z,550.5
2022-09-22T10:40:06.753Z,550.9
2022-09-22T10:41:09.007Z,550.4
2022-09-22T10:42:11.513Z,550.4
2022-09-22T10:43:13.718Z,551
2022-09-22T10:45:20.938Z,550.7
2022-09-22T10:46:23.368Z,550.6
2022-09-22T10:48:30.602Z,551
2022-09-22T10:49:32.819Z,551.2
2022-09-22T10:50:35.306Z,550.7
2022-09-22T10:51:37.798Z,550.4
2022-09-22T10:52:40.292Z,550.5
2022-09-22T10:53:41.926Z,550.9
2022-09-22T10:54:44.409Z,550.8
2022-09-22T10:55:46.723Z,550.9
2022-09-22T10:56:48.935Z,551.1
2022-09-22T10:57:51.171Z,550.6
2022-09-22T10:58:53.658Z,550.4
2022-09-22T10:59:55.866Z,550.8
2022-09-22T11:00:57.804Z,550.1
2022-09-22T11:02:00.502Z,550.9
2022-09-22T11:03:03.064Z,551.4
2022-09-22T11:04:05.744Z,550.3
2022-09-22T11:05:07.744Z,550.4
2022-09-22T11:06:09.692Z,551.4
2022-09-22T11:07:12.190Z,550.9
2022-09-22T11:08:14.662Z,550.9
2022-09-22T11:09:17.147Z,550.6
2022-09-22T11:10:19.335Z,550.8
2022-09-22T11:11:21.892Z,551.7
2022-09-22T11:12:23.831Z,551.4
2022-09-22T11:13:25.768Z,551.2
2022-09-22T11:14:28.024Z,551.3
2022-09-22T11:15:30.867Z,551.4
2022-09-22T11:16:33.341Z,551.8
2022-09-22T11:17:35.841Z,551.5
2022-09-22T11:19:43.338Z,551.6
2022-09-22T11:20:45.824Z,552.8
2022-09-22T11:21:47.785Z,551.9
2022-09-22T11:22:50.000Z,552.3
2022-09-22T11:23:52.222Z,552.2
2022-09-22T11:24:54.158Z,552.2
2022-09-22T11:25:56.651Z,552.6
2022-09-22T11:26:59.190Z,552.5
2022-09-22T11:28:01.136Z,552.2
2022-09-22T11:29:03.776Z,552.8
2022-09-22T11:31:11.675Z,552.1
2022-09-22T11:32:13.948Z,552.3
2022-09-22T11:33:16.163Z,552.5
2022-09-22T11:34:18.648Z,552.7
2022-09-22T11:35:20.290Z,552.3
2022-09-22T11:36:22.220Z,552.3
2022-09-22T11:37:24.445Z,552.4
2022-09-22T11:38:26.930Z,552.8
2022-09-22T11:39:29.405Z,553.4
2022-09-22T11:40:31.645Z,552.8
2022-09-22T11:41:33.596Z,553
2022-09-22T11:42:35.928Z,553.2
2022-09-22T11:43:37.862Z,553.7
2022-09-22T11:44:40.117Z,553.1
2022-09-22T11:45:42.528Z,553.6
2022-09-22T11:46:44.740Z,553.5
2022-09-22T11:47:46.658Z,553.5
2022-09-22T11:48:48.879Z,553.3
2022-09-22T11:49:51.366Z,553.5
2022-09-22T11:50:53.570Z,553.8
2022-09-22T11:51:56.050Z,553.8
2022-09-22T11:53:00.427Z,553.6
2022-09-22T11:54:02.934Z,553.9
2022-09-22T11:55:05.139Z,553.3
2022-09-22T11:56:07.653Z,554
2022-09-22T11:57:09.894Z,554.1
2022-09-22T11:58:12.514Z,554
2022-09-22T11:59:14.705Z,554
2022-09-22T12:00:16.936Z,554.6
2022-09-22T12:01:19.175Z,554.2
2022-09-22T12:02:22.385Z,554.6
2022-09-22T12:03:25.387Z,554.4
2022-09-22T12:04:27.705Z,554.5
2022-09-22T12:05:29.917Z,554.4
2022-09-22T12:06:32.396Z,554.6
2022-09-22T12:07:34.872Z,554.3
2022-09-22T12:08:37.365Z,554.3
2022-09-22T12:09:39.584Z,554.8
2022-09-22T12:10:42.057Z,554.7
2022-09-22T12:11:43.966Z,554.7
2022-09-22T12:12:46.480Z,555.2
2022-09-22T12:13:48.759Z,554.9
2022-09-22T12:14:50.699Z,555.6
2022-09-22T12:15:53.524Z,555.5
2022-09-22T12:16:55.777Z,555.6
2022-09-22T12:17:58.253Z,556
2022-09-22T12:19:00.703Z,555.4
2022-09-22T12:20:02.975Z,555.5
2022-09-22T12:21:05.189Z,555.7
2022-09-22T12:22:07.391Z,555.4
2022-09-22T12:23:09.343Z,555.5
2022-09-22T12:24:10.979Z,555.8
2022-09-22T12:26:17.938Z,555.9
2022-09-22T12:27:20.194Z,556.4
2022-09-22T12:28:22.447Z,556.2
2022-09-22T12:29:24.477Z,556.1
2022-09-22T12:30:27.034Z,556.1
2022-09-22T12:31:29.561Z,556.1
2022-09-22T12:32:31.775Z,556.2
2022-09-22T12:33:33.679Z,556.4
2022-09-22T12:34:36.157Z,556.9
2022-09-22T12:35:38.647Z,556.5
2022-09-22T12:36:40.551Z,556.9
2022-09-22T12:37:42.461Z,556.7
2022-09-22T12:38:44.400Z,556.9
2022-09-22T12:39:46.885Z,557
2022-09-22T12:40:48.801Z,556.6
2022-09-22T12:41:51.064Z,556.2
2022-09-22T12:42:53.565Z,556.5
2022-09-22T12:43:55.521Z,557.1
2022-09-22T12:44:57.979Z,557.5
2022-09-22T12:46:00.560Z,557.5
2022-09-22T12:47:03.460Z,558
2022-09-22T12:49:10.816Z,557.4
2022-09-22T12:50:13.284Z,557.6
2022-09-22T12:51:15.508Z,557.4
2022-09-22T12:52:17.974Z,557.4
2022-09-22T12:53:20.182Z,557.5
2022-09-22T12:54:22.385Z,557.7
2022-09-22T12:55:24.592Z,557.9
2022-09-22T12:56:26.800Z,558.4
2022-09-22T12:57:29.360Z,558.8
2022-09-22T12:58:31.567Z,558.2
2022-09-22T12:59:34.050Z,558.5
2022-09-22T13:00:36.623Z,558.2
2022-09-22T13:01:39.884Z,558.3
2022-09-22T13:02:42.444Z,558.2
2022-09-22T13:03:44.944Z,558.5
2022-09-22T13:04:47.153Z,558.4
2022-09-22T13:05:49.117Z,558
2022-09-22T13:06:51.048Z,558.3
2022-09-22T13:07:53.236Z,558.5
2022-09-22T13:08:55.716Z,558.9
2022-09-22T13:09:57.633Z,558.6
2022-09-22T13:11:00.132Z,558.7
2022-09-22T13:12:02.608Z,558.4
2022-09-22T13:13:05.046Z,558.4
2022-09-22T13:14:08.058Z,558.3
2022-09-22T13:15:10.540Z,558.4
2022-09-22T13:16:13.467Z,557.8
2022-09-22T13:17:15.945Z,558.1
2022-09-22T13:18:18.439Z,558.2
2022-09-22T13:19:20.623Z,558.5
2022-09-22T13:20:22.896Z,558.3
2022-09-22T13:21:25.095Z,558.5
2022-09-22T13:22:27.587Z,558.4
2022-09-22T13:23:29.234Z,558.6
2022-09-22T13:24:31.437Z,558.7
2022-09-22T13:25:33.919Z,558.2
2022-09-22T13:26:36.413Z,558.2
2022-09-22T13:27:38.888Z,558
2022-09-22T13:28:41.424Z,558.1
2022-09-22T13:29:43.761Z,557.9
2022-09-22T13:30:46.617Z,558.2
2022-09-22T13:31:48.952Z,558.4
2022-09-22T13:32:51.424Z,558.7
2022-09-22T13:33:53.660Z,558.7
2022-09-22T13:34:56.150Z,558.5
2022-09-22T13:35:58.069Z,558.7
2022-09-22T13:37:00.247Z,558.3
2022-09-22T13:38:02.719Z,558.4
2022-09-22T13:39:04.950Z,558.6
2022-09-22T13:40:07.853Z,558.8
2022-09-22T13:41:10.340Z,558.8
2022-09-22T13:42:12.541Z,558.5
2022-09-22T13:43:15.013Z,559
2022-09-22T13:44:17.510Z,558.6
2022-09-22T13:45:19.696Z,558.7
2022-09-22T13:46:22.378Z,558.5
2022-09-22T13:47:25.035Z,559.1
2022-09-22T13:48:27.233Z,559.2
2022-09-22T13:49:29.736Z,558.8
2022-09-22T13:50:32.238Z,558.6
2022-09-22T13:51:34.431Z,559
2022-09-22T13:52:36.903Z,559
2022-09-22T13:53:39.105Z,559.6